createdAt,value
2023-09-10T00:01:28.016Z,101499.75
2023-09-10T00:03:54.825Z,101478.09
2023-09-10T00:06:21.549Z,101512.47
2023-09-10T00:08:50.186Z,101518.31
2023-09-10T00:11:16.958Z,101471.88
2023-09-10T00:13:43.713Z,101507.50
2023-09-10T00:16:10.596Z,101494.13
2023-09-10T00:18:37.505Z,101510.53
2023-09-10T00:21:07.317Z,101490.97
2023-09-10T00:23:34.023Z,101488.59
2023-09-10T00:26:00.902Z,101509.16
2023-09-10T00:28:27.573Z,101492.31
2023-09-10T00:30:55.053Z,101501.84
2023-09-10T00:33:21.829Z,101498.78
2023-09-10T00:35:48.598Z,101488.56
2023-09-10T00:38:18.998Z,101502.31
2023-09-10T00:40:45.817Z,101469.28
2023-09-10T00:43:17.994Z,101512.00
2023-09-10T00:45:44.900Z,101505.97
2023-09-10T00:48:11.694Z,101509.97
2023-09-10T00:50:38.635Z,101482.63
2023-09-10T00:53:06.897Z,101499.53
2023-09-10T00:55:40.176Z,101502.88
2023-09-10T00:58:06.994Z,101471.09
2023-09-10T01:00:35.262Z,101502.06
2023-09-10T01:03:02.689Z,101512.59
2023-09-10T01:05:30.556Z,101494.78
2023-09-10T01:07:58.996Z,101498.56
2023-09-10T01:10:34.192Z,101497.09
2023-09-10T01:13:06.856Z,101501.28
2023-09-10T01:15:38.075Z,101501.31
2023-09-10T01:18:21.829Z,101500.47
2023-09-10T01:21:11.261Z,101486.25
2023-09-10T01:24:10.012Z,101505.72
2023-09-10T01:26:41.105Z,101486.47
2023-09-10T01:29:13.915Z,101488.53
2023-09-10T01:31:43.507Z,101504.59
2023-09-10T01:34:14.377Z,101494.53
2023-09-10T01:36:47.821Z,101492.41
2023-09-10T01:39:37.518Z,101482.81
2023-09-10T01:42:06.788Z,101502.66
2023-09-10T01:44:35.689Z,101471.53
2023-09-10T01:47:03.450Z,101498.28
2023-09-10T01:49:32.134Z,101495.38
2023-09-10T01:52:02.295Z,101456.28
2023-09-10T01:54:29.114Z,101492.25
2023-09-10T01:56:55.783Z,101482.88
2023-09-10T01:59:25.619Z,101484.34
2023-09-10T02:01:52.380Z,101493.56
2023-09-10T02:04:19.253Z,101502.97
2023-09-10T02:06:45.962Z,101498.13
2023-09-10T02:09:12.655Z,101498.13
2023-09-10T02:11:39.344Z,101499.16
2023-09-10T02:14:06.037Z,101497.09
2023-09-10T02:16:32.803Z,101496.66
2023-09-10T02:18:59.490Z,101495.84
2023-09-10T02:21:26.303Z,101464.06
2023-09-10T02:23:53.002Z,101489.34
2023-09-10T02:26:21.011Z,101500.28
2023-09-10T02:28:47.838Z,101504.69
2023-09-10T02:31:14.883Z,101498.16
2023-09-10T02:33:44.295Z,101495.66
2023-09-10T02:36:10.966Z,101507.75
2023-09-10T02:38:38.007Z,101514.28
2023-09-10T02:41:04.979Z,101501.69
2023-09-10T02:43:31.905Z,101511.38
2023-09-10T02:45:58.611Z,101502.16
2023-09-10T02:48:28.614Z,101508.03
2023-09-10T02:50:55.385Z,101500.03
2023-09-10T02:53:22.133Z,101522.22
2023-09-10T02:55:48.965Z,101466.16
2023-09-10T02:58:15.731Z,101515.97
2023-09-10T03:00:42.402Z,101514.72
2023-09-10T03:03:09.157Z,101520.97
2023-09-10T03:05:36.072Z,101517.66
2023-09-10T03:08:03.601Z,101517.22
2023-09-10T03:10:30.277Z,101518.06
2023-09-10T03:12:57.106Z,101511.34
2023-09-10T03:15:23.777Z,101510.50
2023-09-10T03:17:53.412Z,101475.59
2023-09-10T03:20:20.254Z,101494.41
2023-09-10T03:22:47.005Z,101469.94
2023-09-10T03:25:13.802Z,101502.97
2023-09-10T03:27:40.592Z,101487.94
2023-09-10T03:30:07.999Z,101453.63
2023-09-10T03:32:34.887Z,101501.09
2023-09-10T03:35:04.162Z,101504.03
2023-09-10T03:37:30.920Z,101511.34
2023-09-10T03:39:57.624Z,101503.41
2023-09-10T03:42:27.051Z,101509.28
2023-09-10T03:44:53.783Z,101509.88
2023-09-10T03:47:20.670Z,101509.66
2023-09-10T03:49:47.501Z,101506.72
2023-09-10T03:52:22.696Z,101503.19
2023-09-10T03:54:49.431Z,101493.75
2023-09-10T03:57:16.246Z,101510.88
2023-09-10T03:59:42.962Z,101510.25
2023-09-10T04:02:10.344Z,101489.34
2023-09-10T04:04:37.285Z,101505.66
2023-09-10T04:07:04.607Z,101498.97
2023-09-10T04:09:32.119Z,101494.59
2023-09-10T04:11:59.117Z,101493.75
2023-09-10T04:14:25.851Z,101502.53
2023-09-10T04:16:52.652Z,101507.78
2023-09-10T04:19:19.361Z,101489.34
2023-09-10T04:21:46.052Z,101506.13
2023-09-10T04:24:12.746Z,101507.34
2023-09-10T04:26:39.497Z,101464.41
2023-09-10T04:29:06.465Z,101507.50
2023-09-10T04:31:38.331Z,101468.00
2023-09-10T04:34:05.023Z,101499.63
2023-09-10T04:36:31.806Z,101509.00
2023-09-10T04:38:58.452Z,101502.72
2023-09-10T04:41:27.573Z,101501.03
2023-09-10T04:43:54.480Z,101466.84
2023-09-10T04:46:21.964Z,101520.44
2023-09-10T04:48:48.788Z,101530.06
2023-09-10T04:51:16.401Z,101483.59
2023-09-10T04:53:43.718Z,101520.09
2023-09-10T04:56:10.598Z,101526.59
2023-09-10T04:58:38.640Z,101523.44
2023-09-10T05:01:06.792Z,101520.09
2023-09-10T05:03:33.586Z,101524.25
2023-09-10T05:06:04.551Z,101528.03
2023-09-10T05:08:31.307Z,101533.88
2023-09-10T05:10:58.243Z,101537.22
2023-09-10T05:13:25.069Z,101534.06
2023-09-10T05:15:55.859Z,101530.31
2023-09-10T05:18:23.240Z,101521.50
2023-09-10T05:20:50.170Z,101536.38
2023-09-10T05:23:16.970Z,101518.81
2023-09-10T05:25:43.785Z,101532.25
2023-09-10T05:28:10.527Z,101534.75
2023-09-10T05:30:43.394Z,101515.50
2023-09-10T05:33:10.287Z,101550.25
2023-09-10T05:35:37.068Z,101524.53
2023-09-10T05:38:06.174Z,101527.25
2023-09-10T05:40:38.882Z,101536.47
2023-09-10T05:43:06.272Z,101540.41
2023-09-10T05:45:34.728Z,101546.06
2023-09-10T05:48:01.616Z,101557.38
2023-09-10T05:50:28.372Z,101545.88
2023-09-10T05:52:57.464Z,101551.72
2023-09-10T05:55:26.040Z,101569.16
2023-09-10T05:57:56.205Z,101567.66
2023-09-10T06:00:23.372Z,101576.25
2023-09-10T06:02:50.863Z,101567.88
2023-09-10T06:05:18.233Z,101537.94
2023-09-10T06:07:45.458Z,101562.63
2023-09-10T06:10:12.300Z,101578.47
2023-09-10T06:12:40.077Z,101591.22
2023-09-10T06:15:08.478Z,101595.38
2023-09-10T06:17:35.697Z,101597.81
2023-09-10T06:20:04.193Z,101584.94
2023-09-10T06:22:31.545Z,101585.31
2023-09-10T06:24:58.372Z,101579.97
2023-09-10T06:27:25.359Z,101591.28
2023-09-10T06:29:52.089Z,101577.28
2023-09-10T06:32:18.859Z,101587.38
2023-09-10T06:34:48.161Z,101565.41
2023-09-10T06:37:15.011Z,101582.38
2023-09-10T06:39:41.965Z,101582.25
2023-09-10T06:42:12.406Z,101585.47
2023-09-10T06:44:50.681Z,101588.44
2023-09-10T06:47:17.475Z,101586.78
2023-09-10T06:49:44.182Z,101590.56
2023-09-10T06:52:11.321Z,101589.50
2023-09-10T06:54:41.336Z,101601.97
2023-09-10T06:57:20.361Z,101583.00
2023-09-10T06:59:47.731Z,101609.50
2023-09-10T07:02:14.477Z,101604.06
2023-09-10T07:04:49.426Z,101572.53
2023-09-10T07:07:17.162Z,101591.44
2023-09-10T07:09:44.084Z,101620.13
2023-09-10T07:12:15.327Z,101589.16
2023-09-10T07:14:44.103Z,101629.66
2023-09-10T07:17:10.937Z,101611.84
2023-09-10T07:19:41.767Z,101623.22
2023-09-10T07:22:08.648Z,101628.47
2023-09-10T07:24:35.315Z,101624.16
2023-09-10T07:27:02.765Z,101634.66
2023-09-10T07:29:29.542Z,101625.16
2023-09-10T07:31:56.295Z,101608.09
2023-09-10T07:34:23.029Z,101629.81
2023-09-10T07:36:50.522Z,101628.00
2023-09-10T07:39:19.519Z,101624.66
2023-09-10T07:41:46.274Z,101610.16
2023-09-10T07:44:12.978Z,101629.31
2023-09-10T07:46:39.741Z,101634.81
2023-09-10T07:49:06.470Z,101633.88
2023-09-10T07:51:33.188Z,101628.66
2023-09-10T07:53:59.934Z,101655.72
2023-09-10T07:56:26.818Z,101641.47
2023-09-10T07:58:53.575Z,101653.94
2023-09-10T08:01:20.400Z,101640.72
2023-09-10T08:03:48.006Z,101653.81
2023-09-10T08:06:16.372Z,101642.31
2023-09-10T08:08:43.074Z,101647.72
2023-09-10T08:11:09.863Z,101630.00
2023-09-10T08:13:36.618Z,101646.03
2023-09-10T08:16:03.473Z,101636.78
2023-09-10T08:18:30.354Z,101641.63
2023-09-10T08:20:57.044Z,101647.78
2023-09-10T08:23:23.809Z,101590.94
2023-09-10T08:25:53.593Z,101648.22
2023-09-10T08:28:20.482Z,101638.88
2023-09-10T08:30:47.354Z,101643.63
2023-09-10T08:33:14.181Z,101642.47
2023-09-10T08:36:00.984Z,101643.34
2023-09-10T08:38:28.694Z,101626.28
2023-09-10T08:41:03.973Z,101618.16
2023-09-10T08:43:53.564Z,101648.88
2023-09-10T08:46:23.613Z,101649.00
2023-09-10T08:48:52.228Z,101654.38
2023-09-10T08:51:19.610Z,101655.78
2023-09-10T08:53:49.157Z,101646.13
2023-09-10T08:56:16.324Z,101664.22
2023-09-10T08:58:44.625Z,101661.78
2023-09-10T09:01:13.136Z,101667.56
2023-09-10T09:03:39.981Z,101654.88
2023-09-10T09:06:07.544Z,101665.91
2023-09-10T09:08:36.704Z,101667.78
2023-09-10T09:11:05.453Z,101667.88
2023-09-10T09:13:36.382Z,101665.56
2023-09-10T09:16:06.801Z,101674.47
2023-09-10T09:18:36.796Z,101677.34
2023-09-10T09:21:14.008Z,101658.72
2023-09-10T09:23:47.097Z,101667.88
2023-09-10T09:26:15.702Z,101668.91
2023-09-10T09:28:42.728Z,101660.69
2023-09-10T09:31:10.918Z,101671.63
2023-09-10T09:33:38.970Z,101661.38
2023-09-10T09:36:08.944Z,101674.97
2023-09-10T09:38:36.052Z,101670.38
2023-09-10T09:41:05.171Z,101671.91
2023-09-10T09:43:35.802Z,101679.16
2023-09-10T09:46:04.095Z,101677.50
2023-09-10T09:48:31.643Z,101677.97
2023-09-10T09:50:58.898Z,101678.50
2023-09-10T09:53:30.242Z,101667.38
2023-09-10T09:56:05.302Z,101670.19
2023-09-10T09:58:32.941Z,101678.81
2023-09-10T10:01:00.748Z,101678.94
2023-09-10T10:03:30.244Z,101669.94
2023-09-10T10:05:57.419Z,101664.88
2023-09-10T10:08:30.367Z,101673.22
2023-09-10T10:10:58.524Z,101667.38
2023-09-10T10:13:26.920Z,101666.59
2023-09-10T10:15:57.806Z,101674.34
2023-09-10T10:18:30.707Z,101682.31
2023-09-10T10:20:59.475Z,101669.56
2023-09-10T10:23:27.250Z,101679.63
2023-09-10T10:25:55.007Z,101683.75
2023-09-10T10:28:22.290Z,101675.56
2023-09-10T10:31:30.062Z,101675.31
2023-09-10T10:34:06.413Z,101677.72
2023-09-10T10:36:54.910Z,101687.59
2023-09-10T10:39:48.068Z,101675.41
2023-09-10T10:42:19.180Z,101686.72
2023-09-10T10:44:46.043Z,101692.97
2023-09-10T10:47:13.870Z,101696.28
2023-09-10T10:49:53.870Z,101672.41
2023-09-10T10:52:31.977Z,101683.47
2023-09-10T10:54:59.628Z,101689.25
2023-09-10T10:57:28.416Z,101691.94
2023-09-10T10:59:55.792Z,101688.72
2023-09-10T11:02:24.709Z,101691.72
2023-09-10T11:05:18.221Z,101693.13
2023-09-10T11:07:46.354Z,101695.66
2023-09-10T11:10:28.446Z,101688.00
2023-09-10T11:13:14.365Z,101700.34
2023-09-10T11:16:06.711Z,101680.91
2023-09-10T11:18:36.574Z,101687.06
2023-09-10T11:21:07.924Z,101684.63
2023-09-10T11:23:36.101Z,101676.78
2023-09-10T11:26:15.314Z,101675.25
2023-09-10T11:28:45.082Z,101656.97
2023-09-10T11:31:39.049Z,101656.81
2023-09-10T11:34:18.399Z,101649.59
2023-09-10T11:37:06.917Z,101644.78
2023-09-10T11:39:35.040Z,101640.59
2023-09-10T11:42:03.916Z,101640.31
2023-09-10T11:44:30.722Z,101609.47
2023-09-10T11:46:58.038Z,101631.03
2023-09-10T11:49:26.083Z,101640.94
2023-09-10T11:51:56.793Z,101630.44
2023-09-10T11:54:24.148Z,101632.31
2023-09-10T11:56:52.970Z,101617.56
2023-09-10T11:59:27.038Z,101622.22
2023-09-10T12:01:55.668Z,101629.97
2023-09-10T12:04:32.688Z,101623.94
2023-09-10T12:07:01.559Z,101613.09
2023-09-10T12:09:32.652Z,101621.88
2023-09-10T12:12:07.245Z,101622.16
2023-09-10T12:14:34.563Z,101631.56
2023-09-10T12:17:01.824Z,101626.13
2023-09-10T12:19:29.324Z,101630.91
2023-09-10T12:21:56.585Z,101627.81
2023-09-10T12:24:23.453Z,101633.34
2023-09-10T12:26:50.311Z,101632.56
2023-09-10T12:29:17.932Z,101629.63
2023-09-10T12:31:45.350Z,101636.00
2023-09-10T12:34:15.510Z,101620.34
2023-09-10T12:36:43.264Z,101610.72
2023-09-10T12:39:26.295Z,101631.28
2023-09-10T12:41:59.998Z,101635.22
2023-09-10T12:44:26.854Z,101640.56
2023-09-10T12:46:53.966Z,101630.56
2023-09-10T12:49:23.258Z,101633.72
2023-09-10T12:51:50.006Z,101631.50
2023-09-10T12:54:16.734Z,101620.72
2023-09-10T12:56:43.928Z,101623.22
2023-09-10T12:59:13.606Z,101627.78
2023-09-10T13:01:40.667Z,101619.63
2023-09-10T13:04:10.900Z,101623.91
2023-09-10T13:06:37.713Z,101613.22
2023-09-10T13:09:05.491Z,101639.38
2023-09-10T13:11:33.316Z,101617.78
2023-09-10T13:14:02.361Z,101616.44
2023-09-10T13:16:30.812Z,101616.84
2023-09-10T13:18:57.831Z,101627.75
2023-09-10T13:21:24.635Z,101636.44
2023-09-10T13:23:51.417Z,101630.22
2023-09-10T13:26:18.409Z,101614.75
2023-09-10T13:28:45.147Z,101634.78
2023-09-10T13:31:12.888Z,101628.06
2023-09-10T13:33:39.604Z,101628.56
2023-09-10T13:36:07.478Z,101600.34
2023-09-10T13:38:34.186Z,101632.47
2023-09-10T13:41:01.031Z,101634.94
2023-09-10T13:43:27.850Z,101634.06
2023-09-10T13:45:54.779Z,101628.94
2023-09-10T13:48:22.165Z,101631.78
2023-09-10T13:50:48.868Z,101626.06
2023-09-10T13:53:15.532Z,101630.75
2023-09-10T13:55:42.364Z,101632.88
2023-09-10T13:58:12.647Z,101636.56
2023-09-10T14:00:40.056Z,101632.63
2023-09-10T14:03:06.704Z,101625.19
2023-09-10T14:05:33.556Z,101631.09
2023-09-10T14:08:00.433Z,101620.53
2023-09-10T14:10:27.317Z,101613.59
2023-09-10T14:12:53.959Z,101614.06
2023-09-10T14:15:21.720Z,101603.97
2023-09-10T14:17:48.772Z,101624.94
2023-09-10T14:20:17.404Z,101622.06
2023-09-10T14:22:44.202Z,101575.63
2023-09-10T14:25:18.677Z,101625.53
2023-09-10T14:27:45.415Z,101621.53
2023-09-10T14:30:14.152Z,101622.97
2023-09-10T14:32:41.779Z,101598.59
2023-09-10T14:35:09.198Z,101622.66
2023-09-10T14:37:36.323Z,101620.09
2023-09-10T14:40:05.756Z,101617.63
2023-09-10T14:42:38.481Z,101618.16
2023-09-10T14:45:05.842Z,101611.41
2023-09-10T14:47:32.666Z,101617.25
2023-09-10T14:49:59.802Z,101621.81
2023-09-10T14:52:26.724Z,101614.94
2023-09-10T14:54:53.945Z,101590.44
2023-09-10T14:57:20.913Z,101602.94
2023-09-10T14:59:47.663Z,101606.53
2023-09-10T15:02:14.393Z,101614.41
2023-09-10T15:04:41.121Z,101612.66
2023-09-10T15:07:07.901Z,101611.94
2023-09-10T15:09:34.530Z,101607.47
2023-09-10T15:12:01.207Z,101617.19
2023-09-10T15:14:27.969Z,101604.34
2023-09-10T15:16:55.563Z,101603.66
2023-09-10T15:19:24.098Z,101606.13
2023-09-10T15:21:51.034Z,101606.66
2023-09-10T15:24:17.820Z,101599.41
2023-09-10T15:26:44.699Z,101601.81
2023-09-10T15:29:11.717Z,101596.66
2023-09-10T15:31:39.046Z,101593.66
2023-09-10T15:34:07.375Z,101593.63
2023-09-10T15:36:35.548Z,101606.22
2023-09-10T15:39:03.858Z,101588.06
2023-09-10T15:41:34.123Z,101588.69
2023-09-10T15:44:04.742Z,101595.34
2023-09-10T15:46:31.914Z,101573.81
2023-09-10T15:49:00.584Z,101592.91
2023-09-10T15:51:27.972Z,101593.50
2023-09-10T15:53:54.695Z,101596.75
2023-09-10T15:56:24.508Z,101599.13
2023-09-10T15:58:51.289Z,101583.81
2023-09-10T16:01:18.168Z,101588.09
2023-09-10T16:03:45.409Z,101583.00
2023-09-10T16:06:13.040Z,101589.09
2023-09-10T16:08:40.194Z,101569.94
2023-09-10T16:11:08.505Z,101594.75
2023-09-10T16:13:35.989Z,101579.00
2023-09-10T16:16:03.286Z,101564.84
2023-09-10T16:18:29.972Z,101592.13
2023-09-10T16:20:58.075Z,101588.38
2023-09-10T16:23:25.121Z,101593.94
2023-09-10T16:25:54.814Z,101574.41
2023-09-10T16:28:21.669Z,101603.38
2023-09-10T16:30:48.629Z,101611.56
2023-09-10T16:33:15.393Z,101582.91
2023-09-10T16:35:45.477Z,101613.00
2023-09-10T16:38:14.255Z,101614.56
2023-09-10T16:40:41.695Z,101622.84
2023-09-10T16:43:08.593Z,101616.88
2023-09-10T16:45:36.181Z,101623.22
2023-09-10T16:48:02.997Z,101620.41
2023-09-10T16:50:29.889Z,101595.00
2023-09-10T16:52:56.745Z,101602.41
2023-09-10T16:55:23.434Z,101598.53
2023-09-10T16:57:50.125Z,101631.09
2023-09-10T17:00:17.024Z,101600.06
2023-09-10T17:02:43.838Z,101603.44
2023-09-10T17:05:11.004Z,101626.47
2023-09-10T17:07:39.206Z,101619.47
2023-09-10T17:10:06.067Z,101632.94
2023-09-10T17:12:32.769Z,101632.09
2023-09-10T17:14:59.440Z,101630.91
2023-09-10T17:17:29.896Z,101603.09
2023-09-10T17:19:56.811Z,101633.50
2023-09-10T17:22:24.348Z,101636.63
2023-09-10T17:24:51.151Z,101633.38
2023-09-10T17:27:17.901Z,101638.13
2023-09-10T17:29:44.796Z,101622.50
2023-09-10T17:32:11.949Z,101629.56
2023-09-10T17:34:38.671Z,101628.72
2023-09-10T17:37:05.343Z,101627.75
2023-09-10T17:39:32.132Z,101599.88
2023-09-10T17:41:58.826Z,101610.09
2023-09-10T17:44:25.609Z,101623.19
2023-09-10T17:46:57.120Z,101629.53
2023-09-10T17:49:24.088Z,101627.47
2023-09-10T17:51:51.865Z,101615.81
2023-09-10T17:54:18.767Z,101625.94
2023-09-10T17:56:45.497Z,101618.44
2023-09-10T17:59:12.529Z,101624.50
2023-09-10T18:01:39.288Z,101615.72
2023-09-10T18:04:07.769Z,101622.47
2023-09-10T18:06:35.230Z,101620.56
2023-09-10T18:09:02.780Z,101593.91
2023-09-10T18:11:29.564Z,101623.31
2023-09-10T18:13:56.644Z,101627.75
2023-09-10T18:16:23.413Z,101613.09
2023-09-10T18:18:50.275Z,101598.06
2023-09-10T18:21:19.991Z,101574.50
2023-09-10T18:23:46.803Z,101629.41
2023-09-10T18:26:16.001Z,101630.50
2023-09-10T18:28:42.913Z,101575.31
2023-09-10T18:31:10.419Z,101611.53
2023-09-10T18:33:37.095Z,101547.34
2023-09-10T18:36:04.250Z,101593.59
2023-09-10T18:38:40.726Z,101620.88
2023-09-10T18:41:12.089Z,101638.97
2023-09-10T18:43:41.942Z,101615.63
2023-09-10T18:46:08.999Z,101651.84
2023-09-10T18:48:36.337Z,101631.22
2023-09-10T18:51:04.739Z,101612.66
2023-09-10T18:53:33.020Z,101624.69
2023-09-10T18:56:00.338Z,101625.66
2023-09-10T18:58:27.222Z,101629.09
2023-09-10T19:00:58.080Z,101604.53
2023-09-10T19:03:25.881Z,101644.25
2023-09-10T19:05:54.267Z,101659.38
2023-09-10T19:08:21.198Z,101648.97
2023-09-10T19:10:59.320Z,101646.88
2023-09-10T19:13:28.865Z,101654.59
2023-09-10T19:15:55.781Z,101635.56
2023-09-10T19:18:22.545Z,101651.28
2023-09-10T19:20:50.190Z,101653.34
2023-09-10T19:23:16.990Z,101656.50
2023-09-10T19:25:44.044Z,101642.34
2023-09-10T19:28:10.897Z,101660.09
2023-09-10T19:30:42.022Z,101631.47
2023-09-10T19:33:18.898Z,101600.47
2023-09-10T19:36:44.237Z,101657.84
2023-09-10T19:39:25.610Z,101661.41
2023-09-10T19:41:52.309Z,101601.31
2023-09-10T19:44:36.024Z,101662.50
2023-09-10T19:47:02.929Z,101647.09
2023-09-10T19:49:29.711Z,101654.34
2023-09-10T19:51:56.416Z,101659.00
2023-09-10T19:54:23.145Z,101652.13
2023-09-10T19:56:50.182Z,101655.94
2023-09-10T19:59:16.963Z,101657.84
2023-09-10T20:01:45.844Z,101640.56
2023-09-10T20:04:13.426Z,101653.41
2023-09-10T20:06:41.970Z,101671.19
2023-09-10T20:09:08.930Z,101657.72
2023-09-10T20:11:44.109Z,101631.72
2023-09-10T20:14:10.977Z,101634.34
2023-09-10T20:16:50.823Z,101655.56
2023-09-10T20:19:17.592Z,101642.81
2023-09-10T20:21:44.372Z,101644.34
2023-09-10T20:24:10.976Z,101641.16
2023-09-10T20:26:37.658Z,101639.13
2023-09-10T20:29:04.409Z,101639.25
2023-09-10T20:31:31.270Z,101633.75
2023-09-10T20:33:57.886Z,101640.63
2023-09-10T20:36:24.615Z,101636.88
2023-09-10T20:38:54.288Z,101636.75
2023-09-10T20:41:21.212Z,101630.19
2023-09-10T20:43:47.975Z,101627.69
2023-09-10T20:46:15.209Z,101601.34
2023-09-10T20:48:42.066Z,101615.16
2023-09-10T20:51:10.459Z,101636.63
2023-09-10T20:53:38.579Z,101640.44
2023-09-10T20:56:06.199Z,101633.50
2023-09-10T20:58:36.439Z,101620.50
2023-09-10T21:01:03.798Z,101604.44
2023-09-10T21:03:32.201Z,101624.94
2023-09-10T21:05:59.751Z,101635.09
2023-09-10T21:08:27.639Z,101612.91
2023-09-10T21:10:54.692Z,101620.19
2023-09-10T21:13:21.531Z,101626.00
2023-09-10T21:15:49.664Z,101614.09
2023-09-10T21:18:17.374Z,101626.50
2023-09-10T21:20:44.533Z,101605.97
2023-09-10T21:23:11.258Z,101611.56
2023-09-10T21:25:40.220Z,101615.75
2023-09-10T21:28:09.468Z,101599.91
2023-09-10T21:30:36.171Z,101613.84
2023-09-10T21:33:03.737Z,101611.13
2023-09-10T21:35:32.866Z,101610.59
2023-09-10T21:37:59.526Z,101594.88
2023-09-10T21:40:26.161Z,101606.22
2023-09-10T21:42:52.990Z,101603.56
2023-09-10T21:45:19.667Z,101605.25
2023-09-10T21:47:46.838Z,101599.66
2023-09-10T21:50:13.655Z,101606.47
2023-09-10T21:52:41.031Z,101595.84
2023-09-10T21:55:08.343Z,101602.41
2023-09-10T21:57:35.041Z,101613.03
2023-09-10T22:00:01.824Z,101607.44
2023-09-10T22:02:28.545Z,101603.97
2023-09-10T22:04:55.356Z,101608.50
2023-09-10T22:07:22.154Z,101605.97
2023-09-10T22:09:49.481Z,101609.31
2023-09-10T22:12:16.751Z,101614.56
2023-09-10T22:14:43.753Z,101591.69
2023-09-10T22:17:10.578Z,101606.34
2023-09-10T22:19:37.405Z,101611.69
2023-09-10T22:22:06.919Z,101608.97
2023-09-10T22:24:36.685Z,101584.31
2023-09-10T22:27:04.345Z,101599.31
2023-09-10T22:29:31.174Z,101591.09
2023-09-10T22:31:58.111Z,101596.34
2023-09-10T22:34:25.295Z,101598.81
2023-09-10T22:36:55.885Z,101603.84
2023-09-10T22:39:22.639Z,101605.63
2023-09-10T22:41:49.390Z,101591.56
2023-09-10T22:44:16.140Z,101602.06
2023-09-10T22:46:42.922Z,101602.91
2023-09-10T22:49:10.290Z,101597.06
2023-09-10T22:51:38.784Z,101584.66
2023-09-10T22:54:05.936Z,101594.06
2023-09-10T22:56:33.003Z,101570.72
2023-09-10T22:58:59.886Z,101580.25
2023-09-10T23:01:27.763Z,101572.88
2023-09-10T23:03:54.976Z,101575.38
2023-09-10T23:06:22.006Z,101567.75
2023-09-10T23:08:48.715Z,101549.66
2023-09-10T23:11:15.659Z,101571.19
2023-09-10T23:13:43.689Z,101583.09
2023-09-10T23:16:10.527Z,101572.63
2023-09-10T23:18:37.252Z,101582.41
2023-09-10T23:21:03.981Z,101571.19
2023-09-10T23:23:30.726Z,101574.19
2023-09-10T23:25:57.417Z,101569.19
2023-09-10T23:28:29.249Z,101574.56
2023-09-10T23:30:56.118Z,101579.91
2023-09-10T23:33:22.890Z,101573.72
2023-09-10T23:35:49.662Z,101563.72
2023-09-10T23:38:16.345Z,101570.16
2023-09-10T23:40:55.116Z,101539.16
2023-09-10T23:43:22.217Z,101560.59
2023-09-10T23:45:49.046Z,101551.91
2023-09-10T23:48:16.125Z,101548.31
2023-09-10T23:50:43.709Z,101550.59
2023-09-10T23:53:10.452Z,101549.63
2023-09-10T23:55:37.360Z,101538.94
2023-09-10T23:58:07.310Z,101528.09
